首页
METAR-TAF:

METAR-TAF

机场 :

Pratica di Mare, 意大利

纬度: 41-39N, 经度: 012-27E, 海拔: 6米

当前天气观测

该预报发布于28分钟前的03:55 UTC
风速8节,风向
温度 13°C
湿度 88%
气压 1006 hPa
能見度: 8000
少量云层高于2000英尺
散云层高于4000英尺

METAR: LIRE 140355Z 09008KT 8000 FEW020 SCT040 13/11 Q1006

时间: 05:23 (04:23 UTC)

预报

该预报发布于2小时和23分钟前的02:00 UTC
预报有效从14日的 03点(UTC)到 14日的 12点(UTC)
风速5节,风向东北
能見度: 7000
散云层高于2500英尺
多云层高于4800英尺
短暂存在
从 14日的 03点(UTC)到 14日的 12点(UTC)
能見度: 5000
多云层高于2100英尺
几率 40% :
短暂存在
从 14日的 03点(UTC)到 14日的 05点(UTC)
少量云层高于700英尺
散云层高于3300英尺
轻雾
几率 30% :
短暂存在
从 14日的 06点(UTC)到 14日的 12点(UTC)
少量云层高于2500英尺, 积雨云.

TAF: LIRE 140200Z 1403/1412 05005KT 7000 SCT025 BKN048 TEMPO 1403/1412 5000 RA BKN021 PROB40 TEMPO 1403/1405 BR FEW007 SCT033 PROB30 TEMPO 1406/1412 FEW025CB

超过4000个机场的气象观测和天气预报(METAR&TAF报告)。

可查询的气象台以黄色和红色小点在地图上表示。

将鼠标移到小点上方,可查看气象台名称。

然后点击查看天气观测和预报。

如需切换地图:点击带黑十字的绿色按钮放大地图;点击带横线的绿色按钮缩小地图;或者点击绿色箭头查看邻近地区的地图。


METAR-TAF: